createdAt,value
2019-03-09T00:02:06.357Z,79.70
2019-03-09T00:07:11.139Z,79.50
2019-03-09T00:12:14.532Z,79.20
2019-03-09T00:17:18.723Z,79.10
2019-03-09T00:22:22.315Z,79.00
2019-03-09T00:27:31.686Z,78.80
2019-03-09T00:32:35.509Z,79.10
2019-03-09T00:37:38.838Z,79.00
2019-03-09T00:42:42.497Z,79.10
2019-03-09T00:47:49.607Z,79.00
2019-03-09T00:52:52.948Z,78.50
2019-03-09T00:57:56.670Z,78.50
2019-03-09T01:03:00.757Z,78.50
2019-03-09T01:08:05.551Z,78.30
2019-03-09T01:13:09.398Z,77.50
2019-03-09T01:18:12.730Z,78.10
2019-03-09T01:23:16.203Z,78.10
2019-03-09T01:28:19.895Z,78.20
2019-03-09T01:33:23.594Z,78.70
2019-03-09T01:38:26.976Z,79.80
2019-03-09T01:43:30.389Z,79.30
2019-03-09T01:48:34.676Z,79.70
2019-03-09T01:53:38.790Z,80.00
2019-03-09T01:58:42.468Z,81.90
2019-03-09T02:03:45.858Z,80.70
2019-03-09T02:08:50.088Z,81.00
2019-03-09T02:13:53.792Z,81.30
2019-03-09T02:18:57.310Z,81.50
2019-03-09T02:24:01.029Z,81.90
2019-03-09T02:29:04.549Z,82.30
2019-03-09T02:34:09.108Z,82.80
2019-03-09T02:39:20.485Z,83.50
2019-03-09T02:44:23.795Z,83.00
2019-03-09T02:49:27.116Z,82.60
2019-03-09T02:54:31.096Z,82.40
2019-03-09T02:59:34.407Z,82.30
2019-03-09T03:04:37.748Z,82.20
2019-03-09T03:09:41.786Z,82.80
2019-03-09T03:14:45.291Z,82.00
2019-03-09T03:19:48.810Z,82.10
2019-03-09T03:24:52.590Z,82.00
2019-03-09T03:29:58.776Z,82.10
2019-03-09T03:35:03.356Z,82.10
2019-03-09T03:40:07.299Z,82.00
2019-03-09T03:45:10.881Z,82.20
2019-03-09T03:50:14.228Z,83.00
2019-03-09T03:55:17.540Z,83.10
2019-03-09T04:00:21.302Z,83.30
2019-03-09T04:05:24.991Z,83.40
2019-03-09T04:10:28.336Z,83.10
2019-03-09T04:15:31.696Z,83.40
2019-03-09T04:20:36.660Z,82.10
2019-03-09T04:25:40.130Z,82.30
2019-03-09T04:30:43.587Z,82.60
2019-03-09T04:35:47.406Z,82.90
2019-03-09T04:40:51.087Z,83.30
2019-03-09T04:45:54.955Z,83.20
2019-03-09T04:50:59.084Z,83.20
2019-03-09T04:56:02.454Z,83.30
2019-03-09T05:01:05.821Z,83.50
2019-03-09T05:06:15.388Z,83.60
2019-03-09T05:11:24.745Z,83.90
2019-03-09T05:16:29.600Z,84.00
2019-03-09T05:21:33.154Z,84.00
2019-03-09T05:26:36.592Z,85.60
2019-03-09T05:31:40.860Z,84.20
2019-03-09T05:36:44.686Z,85.00
2019-03-09T05:41:48.049Z,84.20
2019-03-09T05:46:51.408Z,83.90
2019-03-09T05:52:35.779Z,83.70
2019-03-09T05:57:39.124Z,83.20
2019-03-09T06:02:44.243Z,82.80
2019-03-09T06:07:47.692Z,82.50
2019-03-09T06:12:51.150Z,81.80
2019-03-09T06:17:54.593Z,81.10
2019-03-09T06:22:58.177Z,80.50
2019-03-09T06:28:01.572Z,79.80
2019-03-09T06:33:41.099Z,79.50
2019-03-09T06:39:05.243Z,79.00
2019-03-09T06:44:08.650Z,78.20
2019-03-09T06:49:11.982Z,77.70
2019-03-09T06:54:15.671Z,76.50
2019-03-09T06:59:19.114Z,75.60
2019-03-09T07:04:22.449Z,76.00
2019-03-09T07:09:25.807Z,75.40
2019-03-09T07:15:23.136Z,74.10
2019-03-09T07:20:26.496Z,73.70
2019-03-09T07:25:29.816Z,73.30
2019-03-09T07:30:35.683Z,72.80
2019-03-09T07:35:39.025Z,72.00
2019-03-09T07:40:42.411Z,71.80
2019-03-09T07:45:45.808Z,71.10
2019-03-09T07:50:49.285Z,70.20
2019-03-09T07:55:53.115Z,69.00
2019-03-09T08:00:57.661Z,68.40
2019-03-09T08:06:01.006Z,67.30
2019-03-09T08:11:05.298Z,65.90
2019-03-09T08:16:09.409Z,65.20
2019-03-09T08:21:13.186Z,63.30
2019-03-09T08:26:16.574Z,62.20
2019-03-09T08:31:20.295Z,61.20
2019-03-09T08:36:23.758Z,59.60
2019-03-09T08:41:29.575Z,58.90
2019-03-09T08:46:33.799Z,57.80
2019-03-09T08:51:37.178Z,57.80
2019-03-09T08:56:41.283Z,58.30
2019-03-09T09:01:45.804Z,59.20
2019-03-09T09:06:49.129Z,58.80
2019-03-09T09:11:52.895Z,58.30
2019-03-09T09:16:56.362Z,57.70
2019-03-09T09:22:01.070Z,56.30
2019-03-09T09:27:04.980Z,55.60
2019-03-09T09:32:08.827Z,54.70
2019-03-09T09:37:13.230Z,53.70
2019-03-09T09:42:17.057Z,52.90
2019-03-09T09:47:20.391Z,52.70
2019-03-09T09:52:23.804Z,51.30
2019-03-09T09:57:27.172Z,50.70
2019-03-09T10:02:30.884Z,50.20
2019-03-09T10:07:36.317Z,50.00
2019-03-09T10:12:39.973Z,49.40
2019-03-09T10:17:43.621Z,48.90
2019-03-09T10:22:47.084Z,48.50
2019-03-09T10:27:51.814Z,48.20
2019-03-09T10:32:56.498Z,47.90
2019-03-09T10:38:00.395Z,48.50
2019-03-09T10:43:06.618Z,48.80
2019-03-09T10:48:10.020Z,48.60
2019-03-09T10:53:13.483Z,49.30
2019-03-09T10:58:18.575Z,49.70
2019-03-09T11:03:23.235Z,49.90
2019-03-09T11:08:27.597Z,50.30
2019-03-09T11:13:31.159Z,51.70
2019-03-09T11:18:35.481Z,55.10
2019-03-09T11:23:39.000Z,64.60
2019-03-09T11:28:42.654Z,71.20
2019-03-09T11:33:46.043Z,74.10
2019-03-09T11:38:49.532Z,78.50
2019-03-09T11:43:53.292Z,78.40
2019-03-09T11:48:57.337Z,79.10
2019-03-09T11:54:00.694Z,80.10
2019-03-09T11:59:04.450Z,83.90
2019-03-09T12:04:07.929Z,84.50
2019-03-09T12:09:11.701Z,83.90
2019-03-09T12:14:15.372Z,84.50
2019-03-09T12:19:19.691Z,84.20
2019-03-09T12:24:24.269Z,84.90
2019-03-09T12:29:27.807Z,85.60
2019-03-09T12:34:32.100Z,85.70
2019-03-09T12:39:37.468Z,86.50
2019-03-09T12:44:57.766Z,86.00
2019-03-09T12:50:15.354Z,86.70
2019-03-09T12:55:18.734Z,87.50
2019-03-09T13:00:22.045Z,86.30
2019-03-09T13:05:26.500Z,85.60
2019-03-09T13:10:30.702Z,85.20
2019-03-09T13:15:34.240Z,84.20
2019-03-09T13:20:38.188Z,84.10
2019-03-09T13:25:41.545Z,84.10
2019-03-09T13:30:44.892Z,82.20
2019-03-09T13:35:48.235Z,80.40
2019-03-09T13:40:51.638Z,79.20
2019-03-09T13:45:55.714Z,76.10
2019-03-09T13:51:00.097Z,75.30
2019-03-09T13:56:03.844Z,74.00
2019-03-09T14:01:07.236Z,72.60
2019-03-09T14:06:10.758Z,70.70
2019-03-09T14:11:14.162Z,70.90
2019-03-09T14:16:17.599Z,71.20
2019-03-09T14:21:21.446Z,70.20
2019-03-09T14:26:26.113Z,66.40
2019-03-09T14:31:30.592Z,64.80
2019-03-09T14:36:34.102Z,65.60
2019-03-09T14:41:37.866Z,63.90
2019-03-09T14:46:42.016Z,64.70
2019-03-09T14:51:45.387Z,66.10
2019-03-09T14:56:48.819Z,67.50
2019-03-09T15:01:53.374Z,68.20
2019-03-09T15:06:58.595Z,67.20
2019-03-09T15:12:01.972Z,66.70
2019-03-09T15:17:05.306Z,65.00
2019-03-09T15:22:08.754Z,63.50
2019-03-09T15:27:12.171Z,63.20
2019-03-09T15:32:15.627Z,61.30
2019-03-09T15:37:18.997Z,60.70
2019-03-09T15:42:22.771Z,57.40
2019-03-09T15:47:26.197Z,58.20
2019-03-09T15:52:29.735Z,60.60
2019-03-09T15:57:33.927Z,63.10
2019-03-09T16:02:38.165Z,64.70
2019-03-09T16:07:42.293Z,65.80
2019-03-09T16:12:45.645Z,66.30
2019-03-09T16:17:49.015Z,66.70
2019-03-09T16:22:52.573Z,67.20
2019-03-09T16:27:56.131Z,68.10
2019-03-09T16:32:59.887Z,68.90
2019-03-09T16:38:03.245Z,69.60
2019-03-09T16:43:07.402Z,70.00
2019-03-09T16:48:12.494Z,70.40
2019-03-09T16:53:15.894Z,70.60
2019-03-09T16:58:19.396Z,70.90
2019-03-09T17:03:22.848Z,71.20
2019-03-09T17:08:27.105Z,71.40
2019-03-09T17:13:30.728Z,71.70
2019-03-09T17:18:34.071Z,72.10
2019-03-09T17:23:38.209Z,71.80
2019-03-09T17:28:41.907Z,71.70
2019-03-09T17:33:45.399Z,71.80
2019-03-09T17:38:49.290Z,71.50
2019-03-09T17:43:52.999Z,71.40
2019-03-09T17:48:56.511Z,72.00
2019-03-09T17:54:00.357Z,70.90
2019-03-09T17:59:04.645Z,71.10
2019-03-09T18:04:09.004Z,70.90
2019-03-09T18:09:13.643Z,71.10
2019-03-09T18:14:17.560Z,71.60
2019-03-09T18:19:21.007Z,72.20
2019-03-09T18:24:25.170Z,72.90
2019-03-09T18:29:28.483Z,73.50
2019-03-09T18:34:32.029Z,74.00
2019-03-09T18:39:35.359Z,74.60
2019-03-09T18:44:39.012Z,74.90
2019-03-09T18:49:43.143Z,74.50
2019-03-09T18:54:47.032Z,74.50
2019-03-09T18:59:50.446Z,73.60
2019-03-09T19:04:54.138Z,73.70
2019-03-09T19:09:57.485Z,73.90
2019-03-09T19:15:00.834Z,74.10
2019-03-09T19:20:05.115Z,74.50
2019-03-09T19:25:09.476Z,74.80
2019-03-09T19:30:14.336Z,75.40
2019-03-09T19:35:17.838Z,75.80
2019-03-09T19:40:21.489Z,76.80
2019-03-09T19:45:24.840Z,76.40
2019-03-09T19:50:28.469Z,76.40
2019-03-09T19:55:32.042Z,76.40
2019-03-09T20:00:35.674Z,76.80
2019-03-09T20:05:39.162Z,77.60
2019-03-09T20:10:43.421Z,77.90
2019-03-09T20:15:47.813Z,78.20
2019-03-09T20:20:51.178Z,78.10
2019-03-09T20:25:56.345Z,78.30
2019-03-09T20:30:59.687Z,78.50
2019-03-09T20:36:03.961Z,78.70
2019-03-09T20:41:07.350Z,79.20
2019-03-09T20:46:10.671Z,79.90
2019-03-09T20:51:15.039Z,81.80
2019-03-09T20:56:18.684Z,80.50
2019-03-09T21:01:22.104Z,81.10
2019-03-09T21:06:25.577Z,81.40
2019-03-09T21:11:29.931Z,81.90
2019-03-09T21:16:33.250Z,81.80
2019-03-09T21:21:36.987Z,81.90
2019-03-09T21:26:40.695Z,81.50
2019-03-09T21:31:44.026Z,81.50
2019-03-09T21:36:48.131Z,81.80
2019-03-09T21:41:52.343Z,81.80
2019-03-09T21:46:56.017Z,81.50
2019-03-09T21:51:59.704Z,81.50
2019-03-09T21:57:03.143Z,81.60
2019-03-09T22:02:06.670Z,81.10
2019-03-09T22:07:10.416Z,81.00
2019-03-09T22:12:14.711Z,81.60
2019-03-09T22:17:18.162Z,82.10
2019-03-09T22:22:22.054Z,82.70
2019-03-09T22:27:25.366Z,82.60
2019-03-09T22:32:28.967Z,84.60
2019-03-09T22:37:32.410Z,86.10
2019-03-09T22:42:35.788Z,86.30
2019-03-09T22:47:39.133Z,86.30
2019-03-09T22:52:43.237Z,87.00
2019-03-09T22:57:46.862Z,86.10
2019-03-09T23:02:50.144Z,86.10
2019-03-09T23:07:54.717Z,86.10
2019-03-09T23:12:58.922Z,86.00
2019-03-09T23:18:02.265Z,85.30
2019-03-09T23:23:05.623Z,86.00
2019-03-09T23:28:09.410Z,86.10
2019-03-09T23:33:15.265Z,85.50
2019-03-09T23:38:19.413Z,85.90
2019-03-09T23:43:23.539Z,86.70
2019-03-09T23:48:27.220Z,86.30
2019-03-09T23:53:30.920Z,86.70
2019-03-09T23:58:35.489Z,85.80
